Smithville, TN (37166)

12:39 AM CDT on October 31, 2014 (GMT -0500)
Center Hill Lake | Change Station
CLOSE
Current Station
Personal Weather Station
Location: Sparta, TN
Elevation: 1007 ft
Nearby Weather Stations
Active Advisory: Freeze Watch

Elev 1007 ft 36.00 °N, 85.69 °W | Updated 4 seconds ago

Partly Cloudy
Partly Cloudy
46.9 °F
Feels Like 47 °F
N
0.0
Wind Variable Wind from West
Gusts 0.0 mph

Today
High -- | Low -- °F
--% Chance of Precip.
Yesterday
High -- | Low -- °F
Precip. -- in
7:04 AM 5:48 PM
First Quarter, 51% visible
Pressure 30.03 in
Visibility 10.0 miles
Clouds Mostly Cloudy 10000 ft
Windchill 47 °F
Dew Point 45 °F
Humidity 94%
Rainfall 0.00 in
Snow Depth Not available.
UV 0 out of 12
Pollen .90 out of 12
Air Quality Not available.
Flu Activity Not available.
METAR KSRB 310535Z AUTO 00000KT 10SM BKN100 06/05 A3003 RMK

More Conditions Fewer Conditions

Pressure 30.03 in
Visibility 10.0 miles
Clouds Mostly Cloudy 10000 ft
Windchill 47 °F
Dew Point 45 °F
Humidity 94%
Rainfall 0.00 in
Snow Depth Not available.
UV 0 out of 12
Pollen .90 out of 12
Air Quality Not available.
Flu Activity Not available.
METAR KSRB 310535Z AUTO 00000KT 10SM BKN100 06/05 A3003 RMK

More Conditions Fewer Conditions

10-Day Weather Forecast

Almanac

Astronomy

Oct. 31, 2014 Rise Set
Actual Time
Civil Twilight
Nautical Twilight
Astronomical Twilight
Moon
Length of Visible Light
Length of Day
Tomorrow will be .
, % of the Moon is Illuminated

Today's Extremes

State Highs State Lows

Community

WunderPhotos

Upload Photos

1,766,569 photos uploaded!

WunderBlogs® & News

Nearby

Air Quality

  Air Quality AQ Index Pollutant
Not available.

Snow Depth

Station Depth Elevation

Earthquake Activity

City Distance Mag. Time & Date
Minimum magnitude displayed is 2.5.

Coastal Water Temperatures

Place Temperature

Nearby Weather Stations